• Join FlightAware (Why Join?)
  • Login
  • US Flag 
06:45PM EDT


 

Airport Tracker/Info


-or-


 

Live Flight TrackerFlight Track Log ✈ VH-FNJ ✈ 22-Jun-2013 ✈ YPLM / LEA - YPPH / PER

Flight Track Log - Related Links

Times and Time Zones

All times are in EDT time to prevent confusion due to time zone crossing. See the VH-FNJ flight status page for this flight to view local times or setup timezone preferences in your user account.

Time Position Orientation Groundspeed Altitude Reporting Facility
EDT Latitude Longitude Course Direction KTS MPH feet Rate Location/Type
12:36AM -22.2348 114.0942 166° South 35,000  Level Aus ATC (Calculated)
12:36AM -22.3102 114.1139 166° South 35,000 -2,640 Level Aus ATC (Calculated)
12:37AM -22.3856 114.1336 166° South 35,000 -2,760 Level Aus ATC (Calculated)
12:39AM -22.4408 114.1481 166° South  Level FlightAware Approximate
12:40AM -22.5626 114.1800 166° South  Level FlightAware Approximate
12:40AM -22.6870 114.2127 167° South 35,000  Level Aus ATC (Calculated)
12:42AM -22.7895 114.2388 166° South 326 375 19,100 -4,680 Descending Aus ATC (RADAR)
12:43AM -22.8842 114.2636 166° South 330 380 20,700 1,500 Climbing Aus ATC (RADAR)
12:43AM -22.9320 114.2760 166° South 365 420 21,400 1,740 Climbing FlightAware
12:44AM -22.9742 114.2872 166° South 344 396 22,300 1,980 Climbing Aus ATC (RADAR)
12:44AM -22.9920 114.2920 166° South 361 415 22,600 1,440 Climbing FlightAware
12:45AM -23.0750 114.3140 166° South 371 427 23,800 1,380 Climbing FlightAware
12:45AM -23.1400 114.3310 166° South 379 436 24,700 1,440 Climbing FlightAware
12:46AM -23.2090 114.3470 166° South 378 435 25,700 1,560 Climbing FlightAware
12:46AM -23.2073 114.3471 166° South 354 407 25,800 960 Climbing Aus ATC (RADAR)
12:47AM -23.2920 114.3670 168° South 392 451 26,500 840 Climbing FlightAware
12:48AM -23.3690 114.3870 167° South 407 468 27,100 1,140 Climbing FlightAware
12:48AM -23.4390 114.4070 167° South 404 465 28,100 1,740 Climbing FlightAware
12:48AM -23.4437 114.4076 167° South 395 455 28,300 1,560 Climbing Aus ATC (RADAR)
12:49AM -23.5220 114.4290 166° South 400 460 29,300 1,560 Climbing FlightAware
12:50AM -23.5862 114.4467 166° South 385 443 30,400 1,620 Climbing Aus ATC (RADAR)
12:50AM -23.5930 114.4480 166° South 393 452 30,400 1,080 Level FlightAware
12:50AM -23.6640 114.4670 166° South 396 456 31,200 1,020 Climbing FlightAware
12:51AM -23.7400 114.4870 166° South 405 466 31,800 900 Climbing FlightAware
12:52AM -23.8150 114.5080 166° South 411 473 32,500 1,320 Climbing FlightAware
12:52AM -23.8765 114.5246 166° South 390 449 33,500 1,500 Climbing Aus ATC (RADAR)
12:52AM -23.8950 114.5300 166° South 402 463 33,600 960 Climbing FlightAware
12:53AM -23.9780 114.5520 166° South 404 465 34,400 1,200 Climbing FlightAware
12:54AM -24.0397 114.5689 166° South 387 445 35,200 900 Climbing Aus ATC (RADAR)
12:54AM -24.0510 114.5720 166° South 404 465 35,000 -300 Descending FlightAware
12:54AM -24.1220 114.5910 166° South 423 487 35,000 120 Level FlightAware
12:55AM -24.1311 114.5930 166° South 393 452 35,100  Climbing Aus ATC (RADAR)
12:55AM -24.1920 114.6100 166° South 431 496 35,000 -120 Descending FlightAware
12:56AM -24.2930 114.6370 166° South 433 498 35,000  Level FlightAware
12:57AM -24.3700 114.6580 166° South 434 499 35,000  Level FlightAware
12:57AM -24.4520 114.6800 166° South 436 502 35,000 120 Level FlightAware
12:57AM -24.4529 114.6803 166° South 422 486 35,100  Climbing Aus ATC (RADAR)
12:58AM -24.5350 114.7030 166° South 433 498 35,000 -120 Descending FlightAware
12:59AM -24.6200 114.7280 165° South 432 497 35,000  Level FlightAware
12:59AM -24.7040 114.7510 166° South 432 497 35,000 60 Level FlightAware
01:00AM -24.7840 114.7740 166° South 420 483 35,100  Climbing Aus ATC (RADAR)
01:00AM -24.8070 114.7800 166° South 431 496 35,000 -120 Descending FlightAware
01:01AM -24.8930 114.8030 166° South 433 498 35,000  Level FlightAware
01:02AM -24.9710 114.8250 166° South 432 497 35,000  Level FlightAware
01:02AM -25.0520 114.8470 166° South 432 497 35,000 120 Level FlightAware
01:02AM -25.0554 114.8483 166° South 421 484 35,100  Climbing Aus ATC (RADAR)
01:03AM -25.1350 114.8700 166° South 431 496 35,000 -120 Descending FlightAware
01:04AM -25.2170 114.8920 166° South 432 497 35,000 120 Level FlightAware
01:04AM -25.2208 114.8939 166° South 422 486 35,100  Climbing Aus ATC (RADAR)
01:05AM -25.3050 114.9160 166° South 429 494 35,000 -120 Descending FlightAware
01:05AM -25.3790 114.9370 166° South 429 494 35,000  Level FlightAware
01:06AM -25.4600 114.9590 166° South 430 495 35,000 60 Level FlightAware
01:07AM -25.5303 114.9799 166° South 420 483 35,100  Climbing Aus ATC (RADAR)
01:07AM -25.5420 114.9820 166° South 431 496 35,000  Descending FlightAware
01:07AM -25.5981 114.9991 166° South 420 483 35,100  Climbing Aus ATC (RADAR)
01:07AM -25.6230 115.0050 166° South 429 494 35,000  Descending FlightAware
01:08AM -25.6848 115.0231 166° South 420 483 35,100  Climbing Aus ATC (RADAR)
01:08AM -25.7070 115.0280 166° South 430 495 35,000  Descending FlightAware
01:09AM -25.7723 115.0480 166° South 422 486 35,100  Climbing Aus ATC (RADAR)
01:09AM -25.7840 115.0490 166° South 430 495 35,000 -180 Descending FlightAware
01:09AM -25.8660 115.0730 165° South 431 496 35,000 60 Level FlightAware
01:10AM -25.9744 115.1039 165° South 421 484 35,100  Climbing Aus ATC (RADAR)
01:10AM -25.9800 115.1040 165° South 433 498 35,000 -180 Descending FlightAware
01:11AM -26.0560 115.1260 165° South 433 498 35,000  Level FlightAware
01:12AM -26.1340 115.1460 167° South 431 496 35,000  Level FlightAware
01:13AM -26.2360 115.1740 166° South 429 494 35,000  Level FlightAware
01:13AM -26.3220 115.1960 167° South 429 494 35,000  Level FlightAware
01:14AM -26.4030 115.2180 166° South 429 494 35,000  Level FlightAware
01:15AM -26.4900 115.2410 167° South 430 495 35,000  Level FlightAware
01:15AM -26.5640 115.2610 166° South 429 494 35,000  Level FlightAware
01:16AM -26.6480 115.2840 166° South 427 491 35,000  Level FlightAware
01:17AM -26.7300 115.3070 166° South 428 493 35,000  Level FlightAware
01:18AM -26.8070 115.3290 166° South 427 491 35,000  Level FlightAware
01:18AM -26.8910 115.3520 166° South 426 490 35,000  Level FlightAware
01:19AM -26.9423 115.3712 173° South 35,000  Level Aus ATC (Calculated)
01:19AM -26.9720 115.3750 166° South 426 490 35,000  Level FlightAware
01:20AM -27.0560 115.3990 166° South 428 493 35,000  Level FlightAware
01:20AM -27.1322 115.4247 302° West 35,000  Level Aus ATC (Calculated)
01:20AM -27.1290 115.4190 166° South 427 491 35,000  Level FlightAware
01:21AM -27.2140 115.4430 166° South 424 488 35,000  Level FlightAware
01:22AM -27.2930 115.4660 165° South 422 486 35,000  Level FlightAware
01:23AM -27.3950 115.4960 165° South 423 487 35,000  Level FlightAware
01:23AM -27.4922 115.5266 341° North 35,000  Level Aus ATC (Calculated)
01:23AM -27.4510 115.5110 165° South 424 488 35,000  Level FlightAware
01:24AM -27.6079 115.5595 342° North 35,000  Level Aus ATC (Calculated)
01:24AM -27.5570 115.5410 165° South 425 489 35,000  Level FlightAware
01:24AM -27.6947 115.5842 343° North 35,000  Level Aus ATC (Calculated)
01:25AM -27.6260 115.5610 165° South 425 489 35,000  Level FlightAware
01:25AM -27.7598 115.6028 343° North 35,000  Level Aus ATC (Calculated)
01:26AM -27.7150 115.5870 165° South 424 488 35,000 60 Level FlightAware
01:26AM -27.8167 115.6129 165° South 428 493 35,100  Climbing Aus ATC (RADAR)
01:26AM -27.7730 115.6050 165° South 424 488 35,000  Descending FlightAware
01:27AM -27.8930 115.6382 165° South 426 490 35,100  Climbing Aus ATC (RADAR)
01:27AM -27.8930 115.6380 165° South 426 490 35,000  Descending FlightAware
01:28AM -27.9588 115.6535 165° South 416 479 35,100  Climbing Aus ATC (RADAR)
01:28AM -27.9510 115.6560 165° South 426 490 35,000  Descending FlightAware
01:28AM -28.0353 115.6736 165° South 414 476 35,100  Climbing Aus ATC (RADAR)
01:29AM -28.0310 115.6800 165° South 426 490 35,000  Descending FlightAware
01:29AM -28.1219 115.6966 165° South 417 480 35,100  Climbing Aus ATC (RADAR)
01:29AM -28.0890 115.6980 165° South 426 490 35,000 -120 Descending FlightAware
01:30AM -28.1960 115.7300 165° South 426 490 35,000  Level FlightAware
01:31AM -28.2540 115.7480 165° South 426 490 35,000  Level FlightAware
01:31AM -28.4000 115.7850 165° South 429 494 35,000 120 Level FlightAware
01:32AM -28.4091 115.7832 165° South 412 474 35,100 120 Climbing Aus ATC (RADAR)
01:32AM -28.4858 115.8069 165° South 410 472 35,100 -180 Level Aus ATC (RADAR)
01:32AM -28.4890 115.8110 165° South 418 481 35,000  Descending FlightAware
01:33AM -28.5530 115.8255 165° South 415 478 35,100  Climbing Aus ATC (RADAR)
01:33AM -28.5740 115.8360 165° South 419 482 35,000 -120 Descending FlightAware
01:34AM -28.6520 115.8590 165° South 429 494 35,000  Level FlightAware
01:34AM -28.7290 115.8820 165° South 429 494 35,000  Level FlightAware
01:35AM -28.8160 115.9070 166° South 429 494 35,000 60 Level FlightAware
01:36AM -28.8883 115.9240 166° South 413 475 35,100  Climbing Aus ATC (RADAR)
01:36AM -28.8950 115.9300 166° South 419 482 35,000  Descending FlightAware
01:36AM -28.9559 115.9437 166° South 417 480 35,100  Climbing Aus ATC (RADAR)
01:36AM -28.9720 115.9530 166° South 428 493 35,000  Descending FlightAware
01:37AM -29.0516 115.9711 166° South 419 482 35,100  Climbing Aus ATC (RADAR)
01:37AM -29.0620 115.9790 166° South 428 493 35,000  Descending FlightAware
01:38AM -29.1184 115.9921 166° South 423 487 35,100  Climbing Aus ATC (RADAR)
01:38AM -29.1380 116.0020 166° South 428 493 35,000  Descending FlightAware
01:39AM -29.2145 116.0227 166° South 418 481 35,100  Climbing Aus ATC (RADAR)
01:39AM -29.2260 116.0300 166° South 440 506 35,000  Descending FlightAware
01:39AM -29.2822 116.0514 166° South 430 495 35,100  Climbing Aus ATC (RADAR)
01:39AM -29.3040 116.0650 166° South 445 512 35,000  Descending FlightAware
01:40AM -29.3688 116.0900 166° South 440 506 35,100  Climbing Aus ATC (RADAR)
01:40AM -29.3890 116.1020 166° South 446 513 35,000 -180 Descending FlightAware
01:41AM -29.4580 116.1330 159° South 445 512 35,000  Level FlightAware
01:41AM -29.5440 116.1720 158° South 436 502 35,000  Level FlightAware
01:42AM -29.6210 116.2070 158° South 435 501 35,000  Level FlightAware
01:43AM -29.7050 116.2450 159° South 432 497 35,000  Level FlightAware
01:43AM -29.7810 116.2790 159° South 431 496 35,000 60 Level FlightAware
01:44AM -29.8537 116.3074 159° South 427 491 35,100  Climbing Aus ATC (RADAR)
01:44AM -29.8670 116.3170 159° South 430 495 35,000 -180 Descending FlightAware
01:45AM -29.9420 116.3510 159° South 429 494 35,000  Level FlightAware
01:46AM -30.0180 116.3850 159° South 429 494 35,000  Level FlightAware
01:46AM -30.1040 116.4240 159° South 430 495 35,000  Level FlightAware
01:47AM -30.1810 116.4590 159° South 431 496 35,000  Level FlightAware
01:48AM -30.2560 116.4930 159° South 430 495 35,000 120 Level FlightAware
01:48AM -30.2590 116.4926 159° South 430 495 35,100  Climbing Aus ATC (RADAR)
01:48AM -30.3410 116.5280 160° South 421 484 35,000  Descending FlightAware
01:49AM -30.4107 116.5482 160° South 423 487 35,100  Climbing Aus ATC (RADAR)
01:49AM -30.4180 116.5510 160° South 408 470 35,000 -180 Descending FlightAware
01:50AM -30.4910 116.5650 171° South 392 451 35,000 -240 Level FlightAware
01:50AM -30.5579 116.5682 171° South 394 453 34,700 -600 Descending Aus ATC (RADAR)
01:50AM -30.5710 116.5700 171° South 385 443 34,600 -960 Descending FlightAware
01:51AM -30.6500 116.5660 182° South 374 430 33,900 -960 Descending FlightAware
01:52AM -30.7054 116.5565 182° South 368 423 33,400 -1,080 Descending Aus ATC (RADAR)
01:52AM -30.7180 116.5550 182° South 362 417 33,200 -1,080 Descending FlightAware
01:53AM -30.7867 116.5357 182° South 359 413 32,500 -960 Descending Aus ATC (RADAR)
01:53AM -30.7900 116.5360 182° South 354 407 32,500 -1,080 Level FlightAware
01:53AM -30.8520 116.5120 198° South 341 392 31,800 -1,080 Descending FlightAware
01:54AM -30.9140 116.4860 200° South 361 415 31,100 -1,020 Descending FlightAware
01:55AM -30.9780 116.4600 199° South 360 414 30,500 -2,040 Descending FlightAware
01:55AM -31.0520 116.4310 199° South 389 448 28,300 -2,760 Descending FlightAware
01:56AM -31.1210 116.4050 198° South 373 429 26,600 -2,520 Descending FlightAware
01:57AM -31.1910 116.3781 198° South 370 426 24,800 -2,820 Descending Aus ATC (RADAR)
01:57AM -31.1930 116.3770 198° South 374 430 24,500 -3,480 Descending FlightAware
01:57AM -31.2485 116.3567 198° South 369 425 22,800 -3,180 Descending Aus ATC (RADAR)
01:57AM -31.2610 116.3520 198° South 369 425 22,400 -2,700 Descending FlightAware
01:58AM -31.3368 116.3228 198° South 360 414 20,400 -2,400 Descending Aus ATC (RADAR)
01:58AM -31.3320 116.3250 198° South 355 409 20,500 -2,340 Climbing FlightAware
01:59AM -31.3827 116.3047 198° South 349 402 19,200 -2,640 Descending Aus ATC (RADAR)
01:59AM -31.3930 116.3010 198° South 342 394 18,900 -3,180 Descending FlightAware
01:59AM -31.4490 116.2700 205° Southwest 331 381 16,800 -3,060 Descending FlightAware
02:00AM -31.5120 116.2300 208° Southwest 330 380 14,600 -2,100 Descending FlightAware
02:01AM -31.5640 116.1960 209° Southwest 299 344 13,800 -1,620 Descending FlightAware
02:02AM -31.6130 116.1650 208° Southwest 297 342 12,500 -1,980 Descending FlightAware
02:02AM -31.6660 116.1300 209° Southwest 291 335 11,100 -1,560 Descending FlightAware
02:03AM -31.6929 116.1133 209° Southwest 286 329 10,500 -1,740 Descending Aus ATC (RADAR)
02:03AM -31.7190 116.0960 209° Southwest 292 336 9,800 -2,280 Descending FlightAware
02:04AM -31.7550 116.0750 206° Southwest 282 325 8,900 -1,860 Descending FlightAware
02:04AM -31.7880 116.0670 192° South 276 318 8,100 -1,560 Descending FlightAware
02:04AM -31.8200 116.0610 189° South 276 318 7,600 -1,320 Descending FlightAware
02:05AM -31.8580 116.0730 165° South 284 327 6,900 -1,620 Descending FlightAware
02:06AM -31.9088 116.0991 165° South 280 322 5,700 -1,320 Descending Aus ATC (RADAR)
02:06AM -31.9340 116.1130 165° South 264 304 5,300 -1,320 Descending FlightAware
02:06AM -31.9660 116.1280 165° South 257 296 4,600 -1,800 Descending FlightAware
02:07AM -31.9765 116.1281 165° South 253 291 4,400 -1,380 Descending Aus ATC (RADAR)
02:07AM -32.0060 116.1150 195° South 252 290 3,800 -1,200 Descending FlightAware
02:07AM -32.0340 116.1030 200° South 249 287 3,400 -900 Descending FlightAware
02:08AM -32.0500 116.0940 205° Southwest 237 273 3,200 -660 Descending FlightAware
02:08AM -32.0590 116.0840 223° Southwest 223 257 3,100 -480 Descending FlightAware
02:08AM -32.0640 116.0700 247° West 211 243 3,000 -780 Descending FlightAware
02:09AM -32.0620 116.0420 275° West 193 222 2,600 -840 Descending FlightAware
02:09AM -32.0560 116.0080 282° West 186 214 2,200 -840 Descending FlightAware
02:10AM -32.0500 115.9810 285° West 183 211 1,800 -540 Descending FlightAware
02:11AM -32.0265 115.9417 285° West 151 174 1,500 -540 Descending Aus ATC (RADAR)
02:11AM -31.9965 115.9486 11° North 126 145 900 -120 Descending Aus ATC (RADAR)
02:12AM -32.0270 115.9420 11° North 145 167 1,400 -780 Climbing FlightAware
02:12AM -31.9700 115.9560 12° North 119 137 300 -2,400 Descending FlightAware
02:13AM -31.9560 115.9600 14° North 120 138 -720 Descending FlightAware
02:13AM -31.9470 115.9630 16° North 47 54  Level FlightAware
02:13AM -31.9450 115.9640 23° Northeast 16 18  Level FlightAware
02:14AM -31.9450 115.9650 90° East 12 14  Level FlightAware
02:14AM -31.9450 115.9660 90° East 10 12  Level FlightAware
02:15AM -31.9440 115.9680 59° Northeast 11 13  Level FlightAware
02:15AM -31.9430 115.9680 360° North 9 10  Level FlightAware
02:15AM -31.9440 115.9690 140° Southeast 8 9  Level FlightAware
02:18AM -31.9402 115.9669 52° Northeast  Level FlightAware Approximate